DW8903 Ypaja FI current weather conditions

sailwx.info

Wind from 197 at 0 knots gusting 6

Air temperature 10.0° C
Dewpoint 9.2° C

Last reported at 2018-Oct-18 01:01 UTC.
Time now 2018-Oct-18 01:47 UTC

Location: N 60°48' E 023°14'.
View on Google Maps.

See reports from other nearby stations

  
Tides and Currents Weather Stations Pressure Air Temp Water Temp Dewpoint Dewpoint Depression Visibility Wind Speed Wind Dir Waves Ship Positions
date/time (UTC)wind fromknots sea level pressurealtimeterstation pressurevisibilityair tempwater tempwave heightnotes
2018-Oct-18 01:01 197 0 gusting 6 10.0
2018-Oct-18 00:45 167 0 gusting 7 10.0
2018-Oct-18 00:30 167 0 gusting 4 10.0
2018-Oct-18 00:15 163 0 gusting 3 10.0
2018-Oct-18 00:00 175 10.0
2018-Oct-17 23:45 168 10.6
2018-Oct-17 23:30 156 0 gusting 2 10.6
2018-Oct-17 23:15 157 10.6
2018-Oct-17 23:00 177 10.6
2018-Oct-17 22:45 173 0 gusting 2 10.6
2018-Oct-17 22:30 178 10.6
2018-Oct-17 22:15 221 0 gusting 3 10.6
2018-Oct-17 22:00 226 0 gusting 3 10.6
2018-Oct-17 21:47 180 10.6
2018-Oct-17 21:31 183 10.6
2018-Oct-17 21:16 196 10.6
2018-Oct-17 21:01 196 10.6
2018-Oct-17 20:47 279 10.6
2018-Oct-17 20:31 258 0 gusting 6 10.6
2018-Oct-17 20:16 232 10.6
2018-Oct-17 20:01 217 1 gusting 6 10.6
2018-Oct-17 19:47 216 1 gusting 7 10.6
2018-Oct-17 19:31 205 2 gusting 8 10.6
2018-Oct-17 19:16 246 1 gusting 8 10.6
2018-Oct-17 19:01 225 1 gusting 6 11.1
2018-Oct-17 18:46 226 3 gusting 9 11.1
2018-Oct-17 18:32 234 3 gusting 9 11.1
2018-Oct-17 18:16 229 3 gusting 12 11.1
2018-Oct-17 18:01 239 2 gusting 9 11.1
2018-Oct-17 17:45 217 4 gusting 13 11.1
2018-Oct-17 17:31 243 2 gusting 10 11.1
2018-Oct-17 17:15 238 3 gusting 9 11.1
2018-Oct-17 17:01 205 1 gusting 6 11.7
2018-Oct-17 16:46 226 0 gusting 3 11.1
2018-Oct-17 16:31 178 11.1
2018-Oct-17 16:16 167 0 gusting 4 11.1
2018-Oct-17 16:01 215 0 gusting 2 11.1
2018-Oct-17 15:46 171 1 gusting 6 11.1
2018-Oct-17 15:31 206 1 gusting 4 11.1
2018-Oct-17 15:16 190 1 gusting 4 11.1
2018-Oct-17 15:01 174 0 gusting 2 11.1
2018-Oct-17 14:45 168 1 gusting 3 11.1
2018-Oct-17 14:31 154 1 gusting 5 11.7
2018-Oct-17 14:16 175 2 gusting 9 11.7
2018-Oct-17 14:01 161 0 gusting 3 12.2
2018-Oct-17 13:46 171 2 gusting 5 12.8
2018-Oct-17 13:31 155 0 gusting 4 12.8
2018-Oct-17 13:16 212 1 gusting 4 13.3
2018-Oct-17 13:01 192 0 gusting 6 13.3
2018-Oct-17 12:45 178 2 gusting 5 13.3
2018-Oct-17 12:31 181 1 gusting 6 13.3
2018-Oct-17 12:15 173 2 gusting 9 13.3
2018-Oct-17 12:01 183 2 gusting 8 12.8
2018-Oct-17 11:45 160 1 gusting 8 12.8
2018-Oct-17 11:30 202 0 gusting 8 12.8
2018-Oct-17 11:16 160 3 gusting 7 12.2
2018-Oct-17 11:00 159 3 gusting 9 12.2
2018-Oct-17 10:45 149 0 gusting 7 11.7
2018-Oct-17 10:30 148 0 gusting 4 11.7
2018-Oct-17 10:15 157 1 gusting 6 11.7
2018-Oct-17 10:00 164 0 gusting 6 11.1
2018-Oct-17 09:45 158 11.1
2018-Oct-17 09:30 161 0 gusting 4 11.1
2018-Oct-17 09:15 173 1 gusting 6 10.6
2018-Oct-17 09:00 188 0 gusting 5 10.6
2018-Oct-17 08:45 186 0 gusting 4 10.6
2018-Oct-17 08:30 153 1 gusting 7 10.6
2018-Oct-17 08:15 166 0 gusting 6 10.6
2018-Oct-17 08:00 177 2 gusting 6 10.6
2018-Oct-17 07:45 146 2 gusting 6 10.0
2018-Oct-17 07:30 186 1 gusting 6 10.0
2018-Oct-17 07:17 146 0 gusting 5 10.0
2018-Oct-17 07:01 153 10.0
2018-Oct-17 06:46 155 1 gusting 4 10.0
2018-Oct-17 06:31 166 0 gusting 2 9.4
2018-Oct-17 06:16 163 0 gusting 3 9.4
2018-Oct-17 06:01 162 0 gusting 5 9.4
2018-Oct-17 05:46 167 0 gusting 3 9.4
2018-Oct-17 05:31 208 0 gusting 4 9.4
2018-Oct-17 05:16 171 1 gusting 6 8.9
2018-Oct-17 05:00 166 0 gusting 4 8.9
2018-Oct-17 04:46 163 8.3
2018-Oct-17 04:31 163 8.3
2018-Oct-17 04:16 126 8.3
2018-Oct-17 04:01 146 8.3
2018-Oct-17 03:46 147 8.3
2018-Oct-17 03:31 147 7.8
2018-Oct-17 03:16 159 7.8
2018-Oct-17 03:00 150 0 gusting 2 7.8
2018-Oct-17 02:46 110 7.8
2018-Oct-17 02:30 110 7.8
2018-Oct-17 02:15 118 7.2
2018-Oct-17 02:01 134 7.2
2018-Oct-17 01:45 144 7.2
2018-Oct-17 01:31 104 7.2
2018-Oct-17 01:15 142 7.2
2018-Oct-17 01:00 124 7.2
2018-Oct-17 00:45 113 7.2
2018-Oct-17 00:30 090 6.1
2018-Oct-17 00:15 113 5.6
2018-Oct-17 00:00 078 5.6
2018-Oct-16 23:45 078 5.6
2018-Oct-16 23:30 078 0 gusting 2 4.4
2018-Oct-16 23:15 078 5.0
2018-Oct-16 23:02 059 0 gusting 2 4.4
2018-Oct-16 22:46 059 4.4
2018-Oct-16 22:31 059 4.4
2018-Oct-16 22:16 059 5.0
2018-Oct-16 22:01 059 5.6
2018-Oct-16 21:46 059 5.6
2018-Oct-16 21:31 055 6.7
2018-Oct-16 21:15 063 0 gusting 3 6.7
2018-Oct-16 21:00 113 1 gusting 3 6.7
2018-Oct-16 20:46 116 7.2
2018-Oct-16 20:31 314 7.2
2018-Oct-16 20:16 314 7.2
2018-Oct-16 20:01 314 7.2
2018-Oct-16 19:45 314 7.2
2018-Oct-16 19:31 314 7.2
2018-Oct-16 19:16 314 7.2
2018-Oct-16 19:01 314 7.2
2018-Oct-16 18:45 314 7.2
2018-Oct-16 18:30 314 7.2
2018-Oct-16 18:15 314 7.2
2018-Oct-16 18:00 314 7.2
2018-Oct-16 17:45 314 7.2
2018-Oct-16 17:30 314 6.7
2018-Oct-16 17:15 314 6.7
2018-Oct-16 17:00 314 6.7
2018-Oct-16 16:45 314 6.1
2018-Oct-16 16:30 314 6.7
2018-Oct-16 16:16 314 6.7
2018-Oct-16 16:00 314 7.2
2018-Oct-16 15:46 314 7.8
2018-Oct-16 15:30 314 8.3
2018-Oct-16 15:15 314 8.9
2018-Oct-16 15:00 314 9.4
2018-Oct-16 14:45 314 9.4
2018-Oct-16 14:30 314 10.0
2018-Oct-16 14:16 313 10.6
2018-Oct-16 14:00 309 1 gusting 6 10.6
2018-Oct-16 13:45 327 0 gusting 3 10.6
2018-Oct-16 13:30 317 0 gusting 4 10.6
2018-Oct-16 13:15 020 10.6
2018-Oct-16 13:00 315 0 gusting 3 11.1
2018-Oct-16 12:45 300 1 gusting 6 11.1
2018-Oct-16 12:30 329 0 gusting 7 11.1
2018-Oct-16 12:15 309 0 gusting 3 11.1
2018-Oct-16 12:00 309 11.1
2018-Oct-16 11:45 321 0 gusting 2 11.1
2018-Oct-16 11:30 313 11.1
2018-Oct-16 11:16 320 11.1
2018-Oct-16 11:01 312 0 gusting 3 10.6
2018-Oct-16 10:47 316 0 gusting 4 10.6
2018-Oct-16 10:32 325 10.6
2018-Oct-16 10:15 320 0 gusting 3 10.6
2018-Oct-16 10:01 313 10.6
2018-Oct-16 09:45 313 10.0
2018-Oct-16 09:31 313 10.0
2018-Oct-16 09:16 313 10.0
2018-Oct-16 09:01 313 9.4
2018-Oct-16 08:46 313 9.4
2018-Oct-16 08:30 313 9.4
2018-Oct-16 08:15 313 9.4
2018-Oct-16 08:00 313 9.4
2018-Oct-16 07:45 331 9.4
2018-Oct-16 07:30 235 8.9
2018-Oct-16 07:16 235 8.9
2018-Oct-16 07:00 227 8.9
2018-Oct-16 06:46 225 8.3
2018-Oct-16 06:30 216 8.3
2018-Oct-16 06:15 236 8.3
2018-Oct-16 06:00 219 7.8
2018-Oct-16 05:46 174 7.2
2018-Oct-16 05:30 174 6.7
2018-Oct-16 05:15 174 6.1
2018-Oct-16 05:00 174 6.7
2018-Oct-16 04:45 175 6.1
2018-Oct-16 04:31 174 6.7
2018-Oct-16 04:15 163 6.7
2018-Oct-16 04:00 158 7.2
2018-Oct-16 03:46 158 7.8
2018-Oct-16 03:30 158 7.8
2018-Oct-16 03:15 175 0 gusting 3 7.2
2018-Oct-16 03:00 159 7.8
2018-Oct-16 02:45 184 0 gusting 2 7.8
2018-Oct-16 02:30 167 1 gusting 4 7.8
2018-Oct-16 02:15 168 0 gusting 2 7.8
2018-Oct-16 02:00 202 0 gusting 2 7.8
2018-Oct-16 01:45 161 7.8
2018-Oct-16 01:30 193 1 gusting 6 7.8
2018-Oct-16 01:15 163 1 gusting 4 7.8
2018-Oct-16 01:00 194 0 gusting 6 8.3